Time;durP1;ratioP1;P1;durP2;ratioP2;P2;SDS_P1;SDS_P2;PMS_P1;PMS_P2;Temp;Humidity;BMP_temperature;BMP_pressure;BME280_temperature;BME280_humidity;BME280_pressure;Samples;Min_cycle;Max_cycle;Signal;HPM_P1;HPM_P2
2022/04/01 00:00:01;;;;;;;20.48;18.42;;;9.90;99.90;;;;;;6007606;23;20262;-73
2022/04/01 00:02:28;;;;;;;22.85;20.30;;;9.90;99.90;;;;;;6008910;23;20223;-76
2022/04/01 00:04:55;;;;;;;20.25;18.15;;;9.90;99.90;;;;;;6008538;23;20703;-75
2022/04/01 00:07:23;;;;;;;20.40;18.27;;;10.00;99.90;;;;;;6012550;23;20180;-71
2022/04/01 00:09:50;;;;;;;19.50;17.50;;;10.00;99.90;;;;;;6008223;23;20185;-75
2022/04/01 00:12:17;;;;;;;20.95;18.40;;;10.00;99.90;;;;;;6008596;23;20313;-72
2022/04/01 00:14:45;;;;;;;22.60;20.27;;;10.00;99.90;;;;;;6007476;23;20182;-74
2022/04/01 00:17:12;;;;;;;27.13;22.77;;;10.00;99.90;;;;;;6007260;23;20187;-75
2022/04/01 00:19:39;;;;;;;22.38;20.02;;;10.00;99.90;;;;;;6005265;23;20189;-74
2022/04/01 00:22:06;;;;;;;25.15;21.02;;;9.90;99.90;;;;;;6006129;23;20200;-75
2022/04/01 00:24:35;;;;;;;21.83;19.58;;;9.90;99.90;;;;;;6005479;23;20207;-76
2022/04/01 00:27:02;;;;;;;20.33;18.23;;;9.90;99.90;;;;;;6006850;23;20195;-73
2022/04/01 00:29:29;;;;;;;19.33;17.33;;;10.00;99.90;;;;;;6007637;23;20176;-76
2022/04/01 00:32:00;;;;;;;19.70;17.70;;;10.00;99.90;;;;;;6007047;23;20275;-78
2022/04/01 00:34:27;;;;;;;22.23;19.70;;;10.10;99.90;;;;;;6006270;23;20220;-73
2022/04/01 00:36:56;;;;;;;22.15;19.90;;;10.10;99.90;;;;;;6007406;23;20617;-73
2022/04/01 00:39:25;;;;;;;22.02;19.80;;;10.10;99.90;;;;;;6007194;23;20239;-76
2022/04/01 00:41:54;;;;;;;21.00;18.50;;;10.10;99.90;;;;;;6007495;23;20215;-73
2022/04/01 00:44:23;;;;;;;20.63;18.42;;;10.00;99.90;;;;;;6008444;23;20191;-75
2022/04/01 00:46:53;;;;;;;21.90;19.50;;;10.00;99.90;;;;;;6005280;23;20913;-73
2022/04/01 00:49:21;;;;;;;21.75;19.13;;;10.00;99.90;;;;;;6007120;23;20180;-72
2022/04/01 00:51:50;;;;;;;20.75;18.65;;;10.00;99.90;;;;;;6006132;23;20211;-76
2022/04/01 00:54:17;;;;;;;23.25;19.27;;;10.00;99.90;;;;;;6007514;23;20184;-75
2022/04/01 00:56:46;;;;;;;21.17;18.95;;;10.00;99.90;;;;;;6006908;23;20234;-74
2022/04/01 00:59:14;;;;;;;22.05;19.73;;;10.00;99.90;;;;;;6007807;23;20187;-76
2022/04/01 01:01:43;;;;;;;22.40;19.25;;;10.00;99.90;;;;;;6011024;23;20211;-73
2022/04/01 01:04:12;;;;;;;20.63;18.42;;;10.00;99.90;;;;;;6008051;23;20172;-73
2022/04/01 01:06:41;;;;;;;19.65;17.52;;;10.00;99.90;;;;;;6006336;23;20209;-74
2022/04/01 01:09:08;;;;;;;20.38;18.17;;;10.10;99.90;;;;;;6006932;23;20262;-73
2022/04/01 01:11:36;;;;;;;21.58;18.60;;;10.10;99.90;;;;;;6006007;23;20489;-73
2022/04/01 01:14:03;;;;;;;19.90;17.90;;;10.10;99.90;;;;;;6007669;23;20266;-72
2022/04/01 01:16:44;;;;;;;19.45;17.10;;;10.10;99.90;;;;;;6007217;23;20219;-76
2022/04/01 01:19:14;;;;;;;18.58;16.67;;;10.20;99.90;;;;;;6007714;23;20163;-73
2022/04/01 01:21:41;;;;;;;20.02;17.88;;;10.20;99.90;;;;;;6005124;23;20218;-74
2022/04/01 01:24:13;;;;;;;20.85;17.77;;;10.20;99.90;;;;;;6007826;23;20171;-73
2022/04/01 01:30:06;;;;;;;22.95;20.10;;;10.10;99.90;;;;;;6008005;23;20220;-73
2022/04/01 01:32:34;;;;;;;25.65;22.88;;;10.10;99.90;;;;;;6005759;23;20219;-77
2022/04/01 01:35:02;;;;;;;34.72;30.58;;;10.10;99.90;;;;;;6006793;23;20182;-76
2022/04/01 01:37:29;;;;;;;33.70;27.73;;;10.10;99.90;;;;;;6006517;23;20231;-76
2022/04/01 01:39:56;;;;;;;30.52;27.27;;;10.00;99.90;;;;;;6005754;23;20256;-76
2022/04/01 01:42:23;;;;;;;26.67;23.88;;;9.90;99.90;;;;;;6005643;23;20288;-77
2022/04/01 01:44:50;;;;;;;24.75;22.02;;;9.80;99.90;;;;;;6005607;23;20202;-73
2022/04/01 01:47:18;;;;;;;23.77;20.83;;;9.80;99.90;;;;;;6005601;23;20215;-72
2022/04/01 01:55:11;;;;;;;25.90;23.15;;;9.80;99.90;;;;;;6008151;23;20247;-76
2022/04/01 01:57:38;;;;;;;23.83;21.33;;;9.80;99.90;;;;;;6005352;23;20207;-74
2022/04/01 02:00:10;;;;;;;22.90;20.48;;;9.80;99.90;;;;;;6007686;23;20435;-75
2022/04/01 02:02:39;;;;;;;19.48;17.17;;;9.80;99.90;;;;;;6005363;23;20544;-72
2022/04/01 02:05:07;;;;;;;11.48;10.38;;;9.80;99.90;;;;;;6006864;23;20541;-75
2022/04/01 02:07:36;;;;;;;9.57;8.68;;;9.60;99.90;;;;;;6006109;23;20622;-77
2022/04/01 02:10:03;;;;;;;6.53;5.93;;;9.50;99.90;;;;;;6004398;23;20179;-76
2022/04/01 02:12:30;;;;;;;4.88;4.47;;;9.40;99.90;;;;;;6004054;23;20275;-75
2022/04/01 02:14:59;;;;;;;3.42;3.13;;;9.40;99.90;;;;;;6003854;23;20210;-77
2022/04/01 02:17:26;;;;;;;2.88;2.67;;;9.40;99.90;;;;;;6006112;23;20207;-76
2022/04/01 02:19:54;;;;;;;2.70;2.50;;;9.30;99.90;;;;;;6005318;23;20191;-76
2022/04/01 02:22:21;;;;;;;2.22;2.00;;;9.20;99.90;;;;;;6005999;23;20216;-77
2022/04/01 02:24:50;;;;;;;2.28;2.15;;;9.20;99.90;;;;;;6007934;23;20184;-78
2022/04/01 02:27:18;;;;;;;1.90;1.80;;;9.20;99.90;;;;;;6006205;23;20234;-77
2022/04/01 02:29:45;;;;;;;2.40;2.28;;;9.20;99.90;;;;;;6007549;23;20191;-77
2022/04/01 02:32:12;;;;;;;2.00;1.90;;;9.20;99.90;;;;;;6004810;23;20247;-75
2022/04/01 02:34:40;;;;;;;2.35;2.25;;;9.10;99.90;;;;;;6005446;23;20199;-76
2022/04/01 02:37:09;;;;;;;2.15;2.05;;;9.10;99.90;;;;;;6005590;23;20204;-75
2022/04/01 02:39:37;;;;;;;2.17;1.98;;;8.90;99.90;;;;;;6006104;23;20671;-76
2022/04/01 02:42:04;;;;;;;1.65;1.55;;;8.80;99.90;;;;;;6005428;23;20286;-75
2022/04/01 02:44:33;;;;;;;2.17;2.08;;;8.70;99.90;;;;;;6004215;23;20608;-76
2022/04/01 02:47:00;;;;;;;2.50;2.40;;;8.60;99.90;;;;;;6005961;23;20203;-76
2022/04/01 02:49:27;;;;;;;2.75;2.08;;;8.60;99.90;;;;;;6005306;23;20247;-76
2022/04/01 02:51:54;;;;;;;2.13;1.90;;;8.60;99.90;;;;;;6005739;23;20207;-76
2022/04/01 02:54:22;;;;;;;1.98;1.88;;;8.70;99.90;;;;;;6005430;23;20264;-75
2022/04/01 02:56:49;;;;;;;3.03;2.83;;;8.80;99.90;;;;;;6004520;23;20303;-76
2022/04/01 02:59:16;;;;;;;3.97;3.58;;;8.80;99.90;;;;;;6005716;23;20255;-76
2022/04/01 03:01:43;;;;;;;5.00;3.53;;;8.70;99.90;;;;;;6004741;23;20207;-75
2022/04/01 03:04:12;;;;;;;3.65;2.80;;;8.70;99.90;;;;;;6005626;23;20178;-75
2022/04/01 03:06:40;;;;;;;4.40;4.00;;;8.80;99.90;;;;;;6004918;23;20203;-76
2022/04/01 03:09:07;;;;;;;4.70;4.30;;;8.80;99.90;;;;;;6004625;23;20184;-76
2022/04/01 03:11:36;;;;;;;5.05;4.57;;;8.80;99.90;;;;;;6004544;23;20215;-76
2022/04/01 03:14:03;;;;;;;6.03;5.50;;;8.80;99.90;;;;;;6005430;23;20259;-76
2022/04/01 03:16:31;;;;;;;5.40;4.88;;;8.80;99.90;;;;;;6004057;23;20291;-75
2022/04/01 03:18:59;;;;;;;6.03;5.43;;;8.80;99.90;;;;;;6005488;23;20179;-76
2022/04/01 03:21:28;;;;;;;6.38;5.80;;;8.80;99.90;;;;;;6002977;23;20234;-75
2022/04/01 03:23:56;;;;;;;6.03;5.45;;;8.80;99.90;;;;;;6004801;23;20199;-75
2022/04/01 03:26:23;;;;;;;5.80;5.30;;;8.80;99.90;;;;;;6005508;23;20226;-76
2022/04/01 03:28:51;;;;;;;4.90;4.50;;;8.80;99.90;;;;;;6005725;23;20183;-76
2022/04/01 03:31:18;;;;;;;4.75;4.35;;;8.80;99.90;;;;;;6005353;23;20204;-75
2022/04/01 03:33:45;;;;;;;4.75;4.40;;;8.70;99.90;;;;;;6005718;23;20279;-75
2022/04/01 03:36:13;;;;;;;4.95;4.47;;;8.70;99.90;;;;;;6005057;23;20199;-76
2022/04/01 03:38:41;;;;;;;4.70;4.30;;;8.70;99.90;;;;;;6006431;23;20705;-75
2022/04/01 03:41:08;;;;;;;4.50;4.10;;;8.70;99.90;;;;;;6005949;23;20314;-76
2022/04/01 03:43:35;;;;;;;4.18;3.85;;;8.70;99.90;;;;;;6006767;23;20280;-75
2022/04/01 03:46:08;;;;;;;3.55;3.25;;;8.70;99.90;;;;;;6006040;23;20202;-74
2022/04/01 03:48:42;;;;;;;3.88;3.58;;;8.70;99.90;;;;;;6007529;23;20669;-76
2022/04/01 03:51:10;;;;;;;4.00;3.67;;;8.60;99.90;;;;;;6007032;23;20170;-76
2022/04/01 03:53:42;;;;;;;5.50;2.92;;;8.70;99.90;;;;;;6006727;23;20706;-76
2022/04/01 03:56:09;;;;;;;3.35;3.15;;;8.70;99.90;;;;;;6005943;23;20164;-76
2022/04/01 03:58:36;;;;;;;3.67;3.38;;;8.60;99.90;;;;;;6007163;23;20180;-75
2022/04/01 04:01:05;;;;;;;3.08;2.78;;;8.60;99.90;;;;;;6007230;23;20555;-76
2022/04/01 04:03:33;;;;;;;3.75;3.38;;;8.50;99.90;;;;;;6006848;23;20227;-76
2022/04/01 04:06:01;;;;;;;2.97;2.78;;;8.50;99.90;;;;;;6007346;23;20602;-75
2022/04/01 04:08:28;;;;;;;2.85;2.65;;;8.50;99.90;;;;;;6005921;23;20618;-76
2022/04/01 04:10:56;;;;;;;2.90;2.70;;;8.50;99.90;;;;;;6006661;23;20244;-76
2022/04/01 04:13:25;;;;;;;3.85;3.55;;;8.60;99.90;;;;;;6006695;23;20621;-75
2022/04/01 04:16:04;;;;;;;2.92;2.72;;;8.60;99.90;;;;;;6006957;23;20184;-78
2022/04/01 04:18:42;;;;;;;3.13;2.92;;;8.60;99.90;;;;;;6006699;23;20215;-76
2022/04/01 04:21:12;;;;;;;3.03;2.83;;;8.60;99.90;;;;;;6005557;23;20198;-76
2022/04/01 04:23:47;;;;;;;2.72;2.53;;;8.60;99.90;;;;;;6006873;23;20577;-75
2022/04/01 04:26:16;;;;;;;2.97;2.78;;;8.50;99.90;;;;;;6007156;23;20644;-77
2022/04/01 04:28:50;;;;;;;3.13;2.90;;;8.50;99.90;;;;;;6006842;23;20214;-74
2022/04/01 04:31:26;;;;;;;2.75;2.55;;;8.60;99.90;;;;;;6005927;23;20471;-76
2022/04/01 04:33:57;;;;;;;2.83;2.63;;;8.60;99.90;;;;;;6005840;23;20282;-76
2022/04/01 04:36:36;;;;;;;3.20;2.90;;;8.60;99.90;;;;;;6006932;23;20279;-76
2022/04/01 04:39:06;;;;;;;2.90;2.70;;;8.60;99.90;;;;;;6006116;23;20164;-76
2022/04/01 04:41:33;;;;;;;2.88;2.67;;;8.60;99.90;;;;;;6006757;23;20216;-76
2022/04/01 04:44:01;;;;;;;2.65;2.45;;;8.60;99.90;;;;;;6005261;23;20484;-76
2022/04/01 04:46:30;;;;;;;3.08;2.88;;;8.60;99.90;;;;;;6006162;23;20246;-75
2022/04/01 04:48:59;;;;;;;2.92;2.72;;;8.50;99.90;;;;;;6006872;23;20228;-75
2022/04/01 04:51:28;;;;;;;3.88;2.60;;;8.40;99.90;;;;;;6005707;23;20245;-76
2022/04/01 04:53:59;;;;;;;3.88;2.85;;;8.30;99.90;;;;;;6006479;23;20203;-75
2022/04/01 04:56:27;;;;;;;3.35;3.05;;;8.30;99.90;;;;;;6005042;23;20160;-77
2022/04/01 04:58:56;;;;;;;2.70;2.60;;;8.20;99.90;;;;;;6005661;23;20728;-74
2022/04/01 05:01:34;;;;;;;2.55;2.35;;;8.20;99.90;;;;;;6005070;23;20211;-76
2022/04/01 05:04:39;;;;;;;2.70;2.50;;;8.10;99.90;;;;;;6004146;23;20187;-76
2022/04/01 05:07:16;;;;;;;2.22;2.10;;;8.10;99.90;;;;;;6001167;23;20510;-75
2022/04/01 05:09:54;;;;;;;2.60;2.50;;;8.10;99.90;;;;;;6006354;23;20168;-76
2022/04/01 05:12:30;;;;;;;2.35;1.88;;;8.10;99.90;;;;;;6005934;23;20207;-76
2022/04/01 05:15:08;;;;;;;2.20;2.10;;;8.20;99.90;;;;;;6006143;23;20180;-76
2022/04/01 05:17:37;;;;;;;1.95;1.85;;;8.20;99.90;;;;;;6006293;23;20604;-76
2022/04/01 05:20:15;;;;;;;2.05;1.95;;;8.20;99.90;;;;;;6005777;23;20188;-76
2022/04/01 05:23:07;;;;;;;2.22;2.13;;;8.20;99.90;;;;;;6006401;23;20302;-76
2022/04/01 05:25:41;;;;;;;2.22;2.03;;;8.20;99.90;;;;;;6005794;23;20255;-76
2022/04/01 05:28:21;;;;;;;2.30;2.20;;;8.20;99.90;;;;;;6006177;23;20719;-77
2022/04/01 05:30:56;;;;;;;2.22;2.13;;;8.10;99.90;;;;;;6006034;23;20620;-77
2022/04/01 05:33:27;;;;;;;2.53;2.33;;;8.10;99.90;;;;;;6005871;23;20588;-77
2022/04/01 05:35:56;;;;;;;2.15;2.05;;;8.00;99.90;;;;;;6006413;23;20164;-77
2022/04/01 05:38:25;;;;;;;2.40;2.30;;;7.90;99.90;;;;;;6005246;23;20692;-78
2022/04/01 05:40:52;;;;;;;2.33;2.15;;;7.90;99.90;;;;;;6011188;23;20176;-78
2022/04/01 05:43:19;;;;;;;2.15;2.05;;;7.90;99.90;;;;;;6008595;23;20676;-78
2022/04/01 05:45:49;;;;;;;2.30;2.20;;;7.90;99.90;;;;;;6010235;23;20175;-78
2022/04/01 05:48:19;;;;;;;2.33;1.92;;;7.90;99.90;;;;;;6008687;23;20243;-79
2022/04/01 05:50:49;;;;;;;2.40;2.30;;;7.80;99.90;;;;;;6009175;23;20160;-78
2022/04/01 05:53:21;;;;;;;2.17;2.08;;;7.80;99.90;;;;;;6007727;23;20215;-77
2022/04/01 05:55:51;;;;;;;2.10;2.00;;;7.80;99.90;;;;;;6007072;23;20220;-78
2022/04/01 05:58:18;;;;;;;1.85;1.75;;;7.80;99.90;;;;;;6007759;23;20234;-77
2022/04/01 06:00:55;;;;;;;2.10;2.00;;;7.80;99.90;;;;;;6007051;23;20231;-78
2022/04/01 06:04:01;;;;;;;2.15;2.05;;;7.90;99.90;;;;;;6006893;23;20222;-78
2022/04/01 06:06:31;;;;;;;2.30;2.20;;;7.90;99.90;;;;;;6006727;23;20640;-78
2022/04/01 06:09:08;;;;;;;2.38;2.28;;;8.00;99.90;;;;;;6008420;23;20207;-77
2022/04/01 06:11:45;;;;;;;2.40;2.20;;;8.00;99.90;;;;;;6007896;23;20178;-77
2022/04/01 06:14:19;;;;;;;3.17;2.97;;;8.00;99.90;;;;;;6035297;23;20203;-77
2022/04/01 06:16:49;;;;;;;4.03;3.72;;;7.90;99.90;;;;;;6036865;23;20191;-78
2022/04/01 06:19:23;;;;;;;3.65;3.35;;;7.80;99.90;;;;;;6035547;23;20274;-78
2022/04/01 06:22:03;;;;;;;5.72;5.20;;;7.60;99.90;;;;;;6037160;23;20185;-77
2022/04/01 06:24:37;;;;;;;5.03;4.63;;;7.60;99.90;;;;;;6035579;23;20214;-77
2022/04/01 06:27:06;;;;;;;4.60;4.20;;;7.50;99.90;;;;;;6036942;23;20506;-76
2022/04/01 06:29:39;;;;;;;3.67;3.40;;;7.60;99.90;;;;;;6030662;23;20279;-77
2022/04/01 06:32:08;;;;;;;3.45;3.25;;;7.70;99.90;;;;;;6034289;23;20214;-78
2022/04/01 06:34:48;;;;;;;3.00;2.80;;;7.70;99.90;;;;;;6033216;23;20207;-78
2022/04/01 06:37:23;;;;;;;3.47;3.22;;;7.70;99.90;;;;;;6035199;23;20242;-78
2022/04/01 06:40:02;;;;;;;2.60;2.50;;;7.70;99.90;;;;;;6034635;23;20695;-77
2022/04/01 06:42:33;;;;;;;3.33;3.03;;;7.60;99.90;;;;;;6032038;23;20679;-77
2022/04/01 06:45:00;;;;;;;3.20;3.00;;;7.60;99.90;;;;;;6034264;23;20199;-77
2022/04/01 06:47:27;;;;;;;3.35;3.10;;;7.70;99.90;;;;;;6034366;23;20183;-76
2022/04/01 06:49:54;;;;;;;2.40;2.30;;;7.70;99.90;;;;;;6034329;23;20203;-77
2022/04/01 06:52:22;;;;;;;2.88;2.67;;;7.80;99.90;;;;;;6033289;23;20260;-77
2022/04/01 06:54:49;;;;;;;3.30;3.10;;;7.90;99.90;;;;;;6032321;23;20573;-77
2022/04/01 06:57:18;;;;;;;2.40;2.30;;;8.00;99.90;;;;;;6032861;23;20578;-78
2022/04/01 06:59:45;;;;;;;2.97;2.78;;;8.00;99.90;;;;;;6033811;23;20490;-77
2022/04/01 07:02:12;;;;;;;2.45;2.22;;;7.90;99.90;;;;;;6034086;23;20739;-76
2022/04/01 07:04:39;;;;;;;2.20;2.05;;;7.70;99.90;;;;;;6032730;23;20294;-77
2022/04/01 07:07:06;;;;;;;2.20;2.10;;;7.60;99.90;;;;;;6034764;23;20251;-77
2022/04/01 07:09:33;;;;;;;2.08;1.98;;;7.60;99.90;;;;;;6032827;23;20275;-78
2022/04/01 07:12:01;;;;;;;2.30;2.20;;;7.70;99.90;;;;;;6033315;23;20238;-78
2022/04/01 07:14:31;;;;;;;2.20;2.10;;;7.90;99.90;;;;;;6032546;23;20207;-78
2022/04/01 07:16:58;;;;;;;2.38;2.22;;;8.00;99.90;;;;;;6036521;23;20167;-78
2022/04/01 07:19:26;;;;;;;2.47;2.38;;;8.10;99.90;;;;;;6034264;23;20207;-77
2022/04/01 07:21:53;;;;;;;2.03;1.92;;;8.20;99.90;;;;;;6034923;23;20186;-78
2022/04/01 07:24:20;;;;;;;2.40;2.30;;;8.20;99.90;;;;;;6034298;23;20199;-77
2022/04/01 07:26:47;;;;;;;2.28;2.17;;;8.30;99.90;;;;;;6034515;23;20182;-77
2022/04/01 07:29:15;;;;;;;2.20;2.00;;;8.40;99.90;;;;;;6034109;23;20207;-77
2022/04/01 07:34:34;;;;;;;2.08;1.98;;;8.40;99.90;;;;;;6033220;23;20230;-76
2022/04/01 07:37:01;;;;;;;1.95;1.85;;;8.50;99.90;;;;;;6033929;23;20246;-76
2022/04/01 07:39:28;;;;;;;1.50;1.50;;;8.60;99.90;;;;;;6033606;23;20275;-77
2022/04/01 07:41:55;;;;;;;1.92;1.83;;;8.60;99.90;;;;;;6034860;23;20182;-78
2022/04/01 07:44:23;;;;;;;1.80;1.70;;;8.70;99.90;;;;;;6033367;23;20517;-76
2022/04/01 07:46:51;;;;;;;1.98;1.88;;;8.70;99.90;;;;;;6035619;23;20210;-75
2022/04/01 07:49:19;;;;;;;2.58;2.42;;;8.80;99.90;;;;;;6035084;23;20680;-76
2022/04/01 07:51:46;;;;;;;2.83;2.63;;;8.80;99.90;;;;;;6034236;23;20183;-78
2022/04/01 07:54:14;;;;;;;3.42;3.13;;;8.70;99.90;;;;;;6033746;23;20690;-78
2022/04/01 07:56:42;;;;;;;2.90;2.70;;;8.60;99.90;;;;;;6035060;23;20186;-78
2022/04/01 07:59:09;;;;;;;3.28;2.97;;;8.40;99.90;;;;;;6033980;23;20206;-76
2022/04/01 08:01:36;;;;;;;2.85;2.67;;;8.40;99.90;;;;;;6034007;23;20187;-77
2022/04/01 08:04:05;;;;;;;3.00;2.80;;;8.40;99.90;;;;;;6033356;23;20207;-77
2022/04/01 08:06:32;;;;;;;3.10;2.90;;;8.50;99.90;;;;;;6034532;23;20186;-78
2022/04/01 08:08:59;;;;;;;3.40;3.10;;;8.50;99.90;;;;;;6034281;23;20214;-76
2022/04/01 08:11:26;;;;;;;3.60;3.35;;;8.60;99.90;;;;;;6034138;23;20238;-78
2022/04/01 08:13:54;;;;;;;3.70;3.40;;;8.60;99.90;;;;;;6030718;23;20410;-75
2022/04/01 08:16:22;;;;;;;3.58;3.28;;;8.70;99.90;;;;;;6032469;23;20199;-78
2022/04/01 08:18:49;;;;;;;3.88;3.58;;;8.70;99.90;;;;;;6033398;23;20279;-75
2022/04/01 08:21:18;;;;;;;3.17;2.97;;;8.80;99.90;;;;;;6034836;23;20175;-76
2022/04/01 08:23:45;;;;;;;3.83;3.53;;;8.80;99.90;;;;;;6032643;23;20298;-77
2022/04/01 08:26:12;;;;;;;7.90;4.05;;;8.90;99.90;;;;;;6034005;23;20179;-75
2022/04/01 08:28:40;;;;;;;4.60;4.18;;;8.80;99.90;;;;;;6033169;23;20260;-77
2022/04/01 08:31:09;;;;;;;3.88;3.58;;;8.70;99.90;;;;;;6034790;23;20179;-76
2022/04/01 08:33:37;;;;;;;4.15;3.80;;;8.70;99.90;;;;;;6031340;23;20517;-76
2022/04/01 08:36:04;;;;;;;3.65;3.35;;;8.70;99.90;;;;;;6033365;23;20221;-75
2022/04/01 08:38:33;;;;;;;3.80;3.50;;;8.70;99.90;;;;;;6034254;23;20570;-76
2022/04/01 08:41:00;;;;;;;3.67;3.45;;;8.80;99.90;;;;;;6034837;23;20186;-76
2022/04/01 08:43:29;;;;;;;3.92;3.63;;;8.70;99.90;;;;;;6033989;23;20326;-76
2022/04/01 08:45:57;;;;;;;3.47;3.17;;;8.60;99.90;;;;;;6033813;23;20171;-73
2022/04/01 08:48:26;;;;;;;3.40;3.20;;;8.60;99.90;;;;;;6034449;23;20183;-73
2022/04/01 08:50:53;;;;;;;3.90;3.60;;;8.50;99.90;;;;;;6034560;23;20224;-78
2022/04/01 08:53:20;;;;;;;3.38;3.17;;;8.60;99.90;;;;;;6033710;23;20271;-75
2022/04/01 08:55:51;;;;;;;3.45;3.25;;;8.70;99.90;;;;;;6033869;23;20195;-74
2022/04/01 08:58:19;;;;;;;3.40;3.10;;;8.70;99.90;;;;;;6033705;23;20638;-73
2022/04/01 09:00:47;;;;;;;3.50;3.20;;;8.70;99.90;;;;;;6034242;23;20753;-76
2022/04/01 09:03:16;;;;;;;3.00;2.80;;;8.80;99.90;;;;;;6033725;23;20199;-77
2022/04/01 09:05:46;;;;;;;2.85;2.65;;;8.80;99.90;;;;;;6033905;23;20206;-75
2022/04/01 09:08:15;;;;;;;2.63;2.47;;;8.80;99.90;;;;;;6034314;23;20203;-77
2022/04/01 09:10:56;;;;;;;2.60;2.45;;;8.90;99.90;;;;;;6033826;23;20238;-74
2022/04/01 09:13:25;;;;;;;2.97;2.78;;;9.00;99.90;;;;;;6033028;23;20209;-77
2022/04/01 09:15:52;;;;;;;2.60;2.47;;;9.00;99.90;;;;;;6033885;23;20289;-76
2022/04/01 09:18:41;;;;;;;2.72;2.53;;;9.00;99.90;;;;;;6033430;23;20181;-74
2022/04/01 09:21:10;;;;;;;2.40;2.30;;;9.00;99.90;;;;;;6024746;23;20206;-79
2022/04/01 09:23:38;;;;;;;3.17;2.97;;;9.00;99.90;;;;;;6033734;23;20203;-74
2022/04/01 09:26:07;;;;;;;2.75;2.42;;;9.00;99.90;;;;;;6032612;23;20266;-74
2022/04/01 09:28:38;;;;;;;2.60;2.40;;;9.10;99.90;;;;;;6033679;23;20178;-77
2022/04/01 09:31:09;;;;;;;2.35;2.25;;;9.20;99.90;;;;;;6032820;23;20206;-78
2022/04/01 09:33:54;;;;;;;2.53;2.33;;;9.20;99.90;;;;;;6033073;23;20199;-73
2022/04/01 09:36:24;;;;;;;3.03;2.83;;;9.10;99.90;;;;;;6032295;23;20713;-76
2022/04/01 09:38:58;;;;;;;2.78;2.58;;;9.00;99.90;;;;;;6033619;23;20167;-78
2022/04/01 09:41:38;;;;;;;2.63;2.42;;;9.00;99.90;;;;;;6034087;23;20759;-73
2022/04/01 09:44:09;;;;;;;3.15;2.85;;;9.00;99.90;;;;;;6033233;23;20201;-72
2022/04/01 09:46:42;;;;;;;2.75;2.33;;;9.00;99.90;;;;;;6031938;23;20290;-73
2022/04/01 09:49:09;;;;;;;2.42;2.22;;;8.90;99.90;;;;;;6033730;23;20170;-75
2022/04/01 09:51:40;;;;;;;2.30;2.20;;;8.90;99.90;;;;;;6032635;23;20202;-72
2022/04/01 09:54:07;;;;;;;3.15;2.95;;;8.90;99.90;;;;;;6032345;23;20583;-76
2022/04/01 09:56:41;;;;;;;3.65;3.35;;;8.90;99.90;;;;;;6032011;23;20278;-74
2022/04/01 09:59:09;;;;;;;3.63;3.33;;;8.90;99.90;;;;;;6032954;23;20204;-72
2022/04/01 10:01:38;;;;;;;3.85;3.47;;;8.90;99.90;;;;;;6032926;23;20262;-72
2022/04/01 10:04:07;;;;;;;3.95;3.65;;;8.80;99.90;;;;;;6031785;23;20621;-72
2022/04/01 10:06:35;;;;;;;3.38;3.08;;;8.60;99.90;;;;;;6032587;23;20211;-72
2022/04/01 10:09:05;;;;;;;3.25;3.05;;;8.50;99.90;;;;;;6033227;23;20187;-71
2022/04/01 10:11:33;;;;;;;2.95;2.75;;;8.50;99.90;;;;;;6032134;23;20419;-72
2022/04/01 10:14:06;;;;;;;3.00;2.80;;;8.40;99.90;;;;;;6033173;23;20695;-71
2022/04/01 10:16:35;;;;;;;2.90;2.60;;;8.40;99.90;;;;;;6032052;23;20581;-71
2022/04/01 10:19:08;;;;;;;2.70;2.50;;;8.30;99.90;;;;;;6032633;23;20183;-71
2022/04/01 10:21:36;;;;;;;3.00;2.80;;;8.20;99.90;;;;;;6031578;23;20211;-70
2022/04/01 10:24:14;;;;;;;3.67;2.25;;;8.20;99.90;;;;;;6033289;23;20587;-72
2022/04/01 10:26:47;;;;;;;3.00;2.80;;;8.20;99.90;;;;;;6032767;23;20722;-72
2022/04/01 10:29:15;;;;;;;2.63;2.42;;;8.20;99.90;;;;;;6033743;23;20167;-74
2022/04/01 10:31:53;;;;;;;3.17;2.88;;;8.20;99.90;;;;;;6032643;23;20214;-72
2022/04/01 10:34:21;;;;;;;2.35;2.25;;;8.30;99.90;;;;;;6032988;23;20501;-71
2022/04/01 10:37:00;;;;;;;4.00;3.65;;;8.30;99.90;;;;;;6032483;23;20215;-74
2022/04/01 10:39:28;;;;;;;2.83;2.63;;;8.30;99.90;;;;;;6032659;23;20167;-71
2022/04/01 10:42:10;;;;;;;2.35;2.15;;;8.20;99.90;;;;;;6032513;23;20281;-72
2022/04/01 10:44:54;;;;;;;2.10;2.00;;;8.10;99.90;;;;;;6032823;23;20223;-72
2022/04/01 10:47:23;;;;;;;2.03;1.75;;;8.00;99.90;;;;;;6032570;23;20684;-71
2022/04/01 10:52:35;;;;;;;1.95;1.85;;;7.80;99.90;;;;;;6033054;23;20225;-71
2022/04/01 10:55:16;;;;;;;2.17;1.77;;;7.80;99.90;;;;;;6032759;23;20210;-71
2022/04/01 10:57:45;;;;;;;1.70;1.60;;;7.80;99.90;;;;;;6031979;23;20206;-71
2022/04/01 11:00:16;;;;;;;1.70;1.60;;;7.90;99.90;;;;;;6032458;23;20202;-72
2022/04/01 11:02:45;;;;;;;2.20;2.00;;;7.80;99.90;;;;;;6032228;23;20246;-69
2022/04/01 11:05:31;;;;;;;1.73;1.63;;;7.80;99.90;;;;;;6031927;23;20258;-72
2022/04/01 11:08:19;;;;;;;1.85;1.75;;;7.80;99.90;;;;;;6029892;23;20408;-72
2022/04/01 11:11:08;;;;;;;1.67;1.67;;;7.90;99.90;;;;;;6031627;23;20643;-71
2022/04/01 11:13:37;;;;;;;1.70;1.60;;;8.00;99.90;;;;;;6030901;23;20211;-72
2022/04/01 11:16:16;;;;;;;1.85;1.75;;;8.00;99.90;;;;;;6031383;23;20199;-72
2022/04/01 11:19:10;;;;;;;1.75;1.65;;;8.00;99.90;;;;;;6031557;23;20572;-71
2022/04/01 11:21:37;;;;;;;2.30;2.20;;;8.00;99.90;;;;;;6031474;23;20237;-71
2022/04/01 11:24:05;;;;;;;3.03;2.83;;;8.00;99.90;;;;;;6031970;23;20230;-74
2022/04/01 11:26:41;;;;;;;2.35;2.25;;;7.90;99.90;;;;;;6031884;23;20179;-74
2022/04/01 11:29:18;;;;;;;3.00;2.80;;;7.90;99.90;;;;;;6032725;23;20202;-69
2022/04/01 11:31:48;;;;;;;2.20;2.10;;;7.80;99.90;;;;;;6031534;23;20186;-73
2022/04/01 11:34:16;;;;;;;3.50;3.22;;;7.70;99.90;;;;;;6030705;23;20195;-73
2022/04/01 11:36:43;;;;;;;90.20;6.43;;;7.70;99.90;;;;;;6029308;23;20574;-72
2022/04/01 11:39:17;;;;;;;3.35;2.95;;;7.70;99.90;;;;;;6032079;23;20175;-72
2022/04/01 11:41:51;;;;;;;3.38;3.17;;;7.60;99.90;;;;;;6030868;23;20170;-72
2022/04/01 11:44:18;;;;;;;2.88;2.67;;;7.60;99.90;;;;;;6033468;23;20195;-72
2022/04/01 11:46:54;;;;;;;4.28;3.15;;;7.60;99.90;;;;;;6032522;23;20171;-73
2022/04/01 11:49:27;;;;;;;2.75;2.55;;;7.50;99.90;;;;;;6032257;23;20170;-73
2022/04/01 11:51:54;;;;;;;2.30;2.20;;;7.50;99.90;;;;;;6031950;23;20186;-75
2022/04/01 11:54:23;;;;;;;2.38;2.28;;;7.60;99.90;;;;;;6032552;23;20199;-72
2022/04/01 11:56:53;;;;;;;2.70;2.58;;;7.60;99.90;;;;;;6032694;23;20246;-72
2022/04/01 11:59:20;;;;;;;2.10;2.00;;;7.70;99.90;;;;;;6033288;23;20174;-72
2022/04/01 12:01:58;;;;;;;2.20;2.10;;;7.80;99.90;;;;;;6033817;23;20473;-73
2022/04/01 12:04:32;;;;;;;1.60;1.60;;;7.90;99.90;;;;;;6034467;23;20198;-72
2022/04/01 12:09:45;;;;;;;1.95;1.50;;;8.00;99.90;;;;;;6035269;23;20242;-71
2022/04/01 12:12:12;;;;;;;2.22;1.27;;;7.90;99.90;;;;;;6035367;23;20259;-72
2022/04/01 12:14:40;;;;;;;1.20;1.20;;;7.90;99.90;;;;;;6033906;23;20275;-72
2022/04/01 12:17:08;;;;;;;1.33;1.23;;;7.90;99.90;;;;;;6033994;23;20485;-72
2022/04/01 12:19:36;;;;;;;1.88;1.75;;;7.90;99.90;;;;;;6034658;23;20181;-71
2022/04/01 12:22:04;;;;;;;1.23;1.23;;;8.00;99.90;;;;;;6034432;23;20206;-73
2022/04/01 12:24:33;;;;;;;1.83;1.73;;;8.10;99.90;;;;;;6034977;23;20199;-71
2022/04/01 12:27:01;;;;;;;2.28;2.08;;;8.10;99.90;;;;;;6033985;23;20172;-72
2022/04/01 12:29:30;;;;;;;1.92;1.83;;;8.00;99.90;;;;;;6035968;23;20182;-72
2022/04/01 12:31:59;;;;;;;2.00;1.80;;;7.90;99.90;;;;;;6034336;23;20295;-73
2022/04/01 12:34:27;;;;;;;4.65;2.72;;;7.80;99.90;;;;;;6034788;23;20195;-72
2022/04/01 12:37:00;;;;;;;9.45;4.10;;;7.70;99.90;;;;;;6034545;23;20202;-70
2022/04/01 12:39:28;;;;;;;9.35;3.45;;;7.70;99.90;;;;;;6035615;23;20163;-72
2022/04/01 12:41:57;;;;;;;3.40;3.10;;;7.70;99.90;;;;;;6035866;23;20659;-71
2022/04/01 12:44:27;;;;;;;2.95;2.75;;;7.60;99.90;;;;;;6034208;23;20195;-73
2022/04/01 12:46:55;;;;;;;2.20;2.00;;;7.60;99.90;;;;;;6033057;23;20179;-73
2022/04/01 12:49:24;;;;;;;2.30;2.20;;;7.40;99.90;;;;;;6033018;23;20591;-74
2022/04/01 12:51:55;;;;;;;2.28;2.17;;;7.40;99.90;;;;;;6033474;23;20444;-72
2022/04/01 12:54:36;;;;;;;2.22;2.13;;;7.50;99.90;;;;;;6033274;23;20209;-74
2022/04/01 12:57:05;;;;;;;1.60;1.50;;;7.70;99.90;;;;;;6033136;23;20244;-73
2022/04/01 12:59:36;;;;;;;2.53;2.20;;;7.80;99.90;;;;;;6034114;23;20179;-72
2022/04/01 13:02:06;;;;;;;1.83;1.70;;;7.90;99.90;;;;;;6033673;23;20179;-72
2022/04/01 13:04:40;;;;;;;2.38;1.60;;;8.00;99.90;;;;;;6034285;23;20362;-71
2022/04/01 13:07:10;;;;;;;2.97;1.70;;;8.00;99.90;;;;;;6033523;23;20542;-71
2022/04/01 13:09:52;;;;;;;1.67;1.58;;;8.10;99.90;;;;;;6034449;23;20206;-71
2022/04/01 13:12:21;;;;;;;1.65;1.55;;;8.10;99.90;;;;;;6033711;23;20203;-73
2022/04/01 13:14:59;;;;;;;1.70;1.60;;;8.10;99.90;;;;;;6034602;23;20565;-71
2022/04/01 13:17:27;;;;;;;1.60;1.50;;;8.20;99.90;;;;;;6033899;23;20206;-71
2022/04/01 13:19:54;;;;;;;1.45;1.45;;;8.20;99.90;;;;;;6033627;23;20203;-73
2022/04/01 13:22:21;;;;;;;1.42;1.40;;;8.30;99.90;;;;;;6034148;23;20199;-71
2022/04/01 13:24:51;;;;;;;1.48;1.38;;;8.40;99.90;;;;;;6033606;23;20178;-71